Time;durP1;ratioP1;P1;durP2;ratioP2;P2;SDS_P1;SDS_P2;PMS_P1;PMS_P2;Temp;Humidity;BMP_temperature;BMP_pressure;BME280_temperature;BME280_humidity;BME280_pressure;Samples;Min_cycle;Max_cycle;Signal;HPM_P1;HPM_P2
2022/12/31 00:01:43;;;;;;;26.83;14.40;;;;;;;7.31;100.00;95459.00;5092738;28;20192;-53
2022/12/31 00:04:08;;;;;;;28.00;14.03;;;;;;;7.38;100.00;95466.13;5074957;28;20627;-53
2022/12/31 00:06:35;;;;;;;25.67;16.10;;;;;;;7.37;100.00;95458.63;5092868;28;20191;-53
2022/12/31 00:09:04;;;;;;;27.67;14.97;;;;;;;7.50;100.00;95464.56;5092544;28;20215;-55
2022/12/31 00:11:30;;;;;;;25.53;14.10;;;;;;;7.56;100.00;95472.63;5092634;28;20267;-52
2022/12/31 00:13:57;;;;;;;25.37;14.80;;;;;;;7.62;100.00;95469.72;5092620;28;20228;-54
2022/12/31 00:16:25;;;;;;;28.83;15.53;;;;;;;7.81;100.00;95498.97;5092928;28;20195;-56
2022/12/31 00:18:53;;;;;;;30.90;16.40;;;;;;;7.80;100.00;95507.50;5092525;28;20181;-54
2022/12/31 00:21:19;;;;;;;24.93;14.70;;;;;;;7.67;100.00;95504.06;5092772;28;20621;-53
2022/12/31 00:23:45;;;;;;;25.13;14.53;;;;;;;7.49;100.00;95478.94;5090202;28;20192;-56
2022/12/31 00:26:13;;;;;;;23.83;14.93;;;;;;;7.56;100.00;95489.50;5090304;28;20223;-56
2022/12/31 00:28:40;;;;;;;24.07;14.83;;;;;;;7.47;100.00;95479.94;5091233;28;20595;-53
2022/12/31 00:31:11;;;;;;;27.17;14.17;;;;;;;7.42;100.00;95459.97;5092249;28;20219;-59
2022/12/31 00:33:37;;;;;;;26.33;13.83;;;;;;;7.70;100.00;95496.25;5092390;28;20582;-53
2022/12/31 00:36:26;;;;;;;24.97;13.17;;;;;;;7.71;100.00;95511.38;5092702;28;20212;-52
2022/12/31 00:38:54;;;;;;;24.33;14.80;;;;;;;7.58;100.00;95506.22;5091052;28;20657;-57
2022/12/31 00:41:21;;;;;;;27.77;13.67;;;;;;;7.38;100.00;95488.06;5090964;28;20180;-54
2022/12/31 00:43:47;;;;;;;24.07;13.63;;;;;;;7.35;100.00;95495.84;5091232;28;20589;-56
2022/12/31 00:46:13;;;;;;;22.40;13.03;;;;;;;7.40;100.00;95504.78;5091188;28;20681;-52
2022/12/31 00:48:39;;;;;;;18.20;11.33;;;;;;;7.37;100.00;95504.16;5091038;28;20358;-57
2022/12/31 00:51:07;;;;;;;19.37;10.77;;;;;;;7.23;100.00;95487.25;5091890;28;20241;-54
2022/12/31 00:53:33;;;;;;;22.67;10.90;;;;;;;7.61;100.00;95538.91;5073765;28;20196;-55
2022/12/31 00:56:03;;;;;;;20.80;10.27;;;;;;;7.54;99.24;95552.03;5091963;28;20305;-55
2022/12/31 00:58:28;;;;;;;14.20;9.63;;;;;;;7.30;100.00;95528.16;5092191;28;20200;-53
2022/12/31 01:00:55;;;;;;;19.83;9.63;;;;;;;7.40;100.00;95539.38;5092146;28;20208;-53
2022/12/31 01:03:20;;;;;;;17.73;9.90;;;;;;;7.39;100.00;95540.28;5091995;28;20198;-54
2022/12/31 01:05:45;;;;;;;20.17;11.77;;;;;;;7.31;100.00;95527.28;5092040;28;20648;-53
2022/12/31 01:08:11;;;;;;;30.07;17.77;;;;;;;7.08;100.00;95542.94;5091925;28;20192;-52
2022/12/31 01:13:20;;;;;;;39.93;20.33;;;;;;;6.56;100.00;95504.63;5091932;28;20198;-56
2022/12/31 01:15:46;;;;;;;40.67;20.97;;;;;;;6.37;100.00;95492.19;5091747;28;20291;-56
2022/12/31 01:18:12;;;;;;;37.83;19.23;;;;;;;6.05;100.00;95464.53;5091888;28;20188;-53
2022/12/31 01:20:40;;;;;;;42.70;19.70;;;;;;;6.08;100.00;95470.22;5091419;28;20757;-56
2022/12/31 01:23:06;;;;;;;32.00;18.53;;;;;;;6.07;100.00;95478.72;5091732;28;20194;-52
2022/12/31 01:25:40;;;;;;;29.73;17.43;;;;;;;6.11;100.00;95480.16;5091790;28;20214;-55
2022/12/31 01:28:07;;;;;;;31.10;17.07;;;;;;;6.14;100.00;95491.81;5091930;28;20271;-53
2022/12/31 01:30:37;;;;;;;28.80;16.03;;;;;;;6.07;100.00;95491.34;5073415;28;20224;-56
2022/12/31 01:33:03;;;;;;;28.80;16.57;;;;;;;6.05;100.00;95485.56;5073675;28;20268;-52
2022/12/31 01:35:28;;;;;;;30.97;15.40;;;;;;;6.19;100.00;95495.72;5091523;28;20261;-54
2022/12/31 01:37:53;;;;;;;27.90;15.23;;;;;;;6.35;100.00;95506.59;5091361;28;20207;-56
2022/12/31 01:40:19;;;;;;;29.97;14.80;;;;;;;6.40;100.00;95513.94;5091097;28;20230;-55
2022/12/31 01:42:52;;;;;;;24.27;14.60;;;;;;;6.49;100.00;95526.06;5091169;28;20192;-55
2022/12/31 01:45:17;;;;;;;26.67;14.57;;;;;;;6.58;100.00;95541.53;5073111;28;20199;-57
2022/12/31 01:47:48;;;;;;;20.43;11.90;;;;;;;6.46;100.00;95527.06;5091279;28;20188;-56
2022/12/31 01:50:25;;;;;;;18.57;10.67;;;;;;;6.17;100.00;95494.97;5091200;28;20231;-54
2022/12/31 01:52:55;;;;;;;19.17;11.33;;;;;;;5.91;100.00;95483.78;5091359;28;20226;-55
2022/12/31 01:55:27;;;;;;;21.53;12.00;;;;;;;5.90;100.00;95499.78;5091539;28;20677;-54
2022/12/31 01:57:59;;;;;;;24.20;11.30;;;;;;;6.04;100.00;95506.63;5091119;28;20172;-53
2022/12/31 02:00:24;;;;;;;20.00;11.33;;;;;;;5.96;100.00;95498.66;5091212;28;20196;-54
2022/12/31 02:02:50;;;;;;;24.10;11.90;;;;;;;5.84;100.00;95496.78;5091084;28;20692;-53
2022/12/31 02:05:25;;;;;;;22.27;13.07;;;;;;;5.88;100.00;95499.06;5091040;28;20238;-55
2022/12/31 02:07:53;;;;;;;20.73;12.13;;;;;;;6.00;100.00;95505.16;5090898;28;20184;-55
2022/12/31 02:10:18;;;;;;;20.63;11.63;;;;;;;6.03;100.00;95509.22;5091119;28;20249;-55
2022/12/31 02:12:44;;;;;;;19.67;12.40;;;;;;;6.08;100.00;95509.81;5091004;28;20274;-53
2022/12/31 02:15:10;;;;;;;19.03;11.97;;;;;;;6.01;100.00;95511.84;5089725;28;20219;-53
2022/12/31 02:18:16;;;;;;;22.10;12.20;;;;;;;6.06;100.00;95509.09;5090855;28;20200;-53
2022/12/31 02:20:44;;;;;;;17.23;11.27;;;;;;;6.19;100.00;95520.97;5041270;28;20219;-52
2022/12/31 02:23:16;;;;;;;20.00;11.73;;;;;;;6.14;100.00;95512.00;5091038;28;20198;-52
2022/12/31 02:26:01;;;;;;;22.30;12.73;;;;;;;6.12;100.00;95522.16;5090836;28;20223;-55
2022/12/31 02:28:45;;;;;;;19.07;11.57;;;;;;;6.20;100.00;95520.06;5090673;28;20255;-52
2022/12/31 02:31:32;;;;;;;16.37;10.70;;;;;;;6.28;100.00;95535.59;5090956;28;20207;-56
2022/12/31 02:34:05;;;;;;;21.10;12.03;;;;;;;6.12;100.00;95518.84;5088725;28;20245;-56
2022/12/31 02:36:35;;;;;;;18.83;11.43;;;;;;;6.07;100.00;95519.09;5088694;28;20202;-55
2022/12/31 02:39:02;;;;;;;16.17;10.30;;;;;;;6.22;100.00;95530.88;5089286;28;20566;-53
2022/12/31 02:44:40;;;;;;;19.07;11.40;;;;;;;6.48;100.00;95554.75;5090577;28;20228;-56
2022/12/31 02:47:08;;;;;;;19.43;10.90;;;;;;;6.49;100.00;95553.84;5068009;28;20204;-53
2022/12/31 02:49:54;;;;;;;18.37;11.73;;;;;;;6.52;100.00;95543.56;5088613;28;20291;-56
2022/12/31 02:52:33;;;;;;;18.77;10.73;;;;;;;6.68;100.00;95551.94;5074743;28;20618;-55
2022/12/31 02:55:06;;;;;;;21.23;11.03;;;;;;;6.75;100.00;95566.66;5093454;28;20734;-56
2022/12/31 02:57:41;;;;;;;20.13;10.90;;;;;;;6.75;100.00;95565.84;5093293;28;20184;-52
2022/12/31 03:02:58;;;;;;;17.63;10.73;;;;;;;6.90;100.00;95604.63;5093820;28;20266;-55
2022/12/31 03:05:28;;;;;;;19.67;11.47;;;;;;;6.72;100.00;95578.66;5094008;28;20216;-55
2022/12/31 03:07:53;;;;;;;20.00;11.47;;;;;;;6.70;100.00;95568.66;5093815;28;20666;-55
2022/12/31 03:10:20;;;;;;;18.93;11.47;;;;;;;6.72;100.00;95560.97;5093554;28;20219;-53
2022/12/31 03:12:45;;;;;;;19.00;11.27;;;;;;;6.59;100.00;95533.03;5093666;28;20644;-53
2022/12/31 03:15:32;;;;;;;16.40;10.63;;;;;;;6.55;100.00;95530.75;5093669;28;20210;-53
2022/12/31 03:18:17;;;;;;;19.73;11.07;;;;;;;6.52;100.00;95523.38;5093356;28;20231;-57
2022/12/31 03:23:48;;;;;;;17.13;10.03;;;;;;;6.59;100.00;95538.09;5093625;28;20196;-54
2022/12/31 03:26:14;;;;;;;23.73;11.63;;;;;;;6.74;100.00;95547.38;5093225;28;20297;-55
2022/12/31 03:28:46;;;;;;;18.53;10.97;;;;;;;6.70;100.00;95538.34;5093448;28;20345;-53
2022/12/31 03:31:12;;;;;;;18.10;10.57;;;;;;;6.71;100.00;95542.47;5093323;28;20215;-56
2022/12/31 03:33:40;;;;;;;20.70;11.13;;;;;;;6.72;100.00;95549.16;5093417;28;20271;-53
2022/12/31 03:36:12;;;;;;;17.53;10.90;;;;;;;6.93;100.00;95591.84;5093078;28;20215;-53
2022/12/31 03:38:38;;;;;;;18.97;10.93;;;;;;;6.91;100.00;95596.16;5093298;28;20557;-55
2022/12/31 03:41:04;;;;;;;20.27;10.63;;;;;;;6.75;100.00;95581.84;5093526;28;20227;-54
2022/12/31 03:43:30;;;;;;;19.23;11.63;;;;;;;6.59;100.00;95560.00;5093081;28;20196;-52
2022/12/31 03:45:58;;;;;;;17.20;10.87;;;;;;;6.57;100.00;95560.09;5093266;28;20196;-53
2022/12/31 03:48:23;;;;;;;21.57;12.27;;;;;;;6.47;100.00;95555.63;5092930;28;20198;-54
2022/12/31 03:50:49;;;;;;;16.97;10.00;;;;;;;6.55;100.00;95569.47;5093126;28;20208;-56
2022/12/31 03:53:15;;;;;;;13.90;8.57;;;;;;;6.48;100.00;95553.03;5093064;28;20234;-53
2022/12/31 03:55:41;;;;;;;15.57;9.30;;;;;;;6.51;100.00;95555.38;5092881;28;20199;-56
2022/12/31 03:58:06;;;;;;;24.73;11.47;;;;;;;6.46;100.00;95554.00;5074926;28;20191;-56
2022/12/31 04:00:32;;;;;;;19.87;10.27;;;;;;;6.28;100.00;95530.53;5092681;28;20218;-53
2022/12/31 04:02:57;;;;;;;15.90;9.67;;;;;;;6.53;100.00;95571.28;5092741;28;20188;-53
2022/12/31 04:05:23;;;;;;;16.93;10.57;;;;;;;6.53;100.00;95565.41;5074807;28;20664;-53
2022/12/31 04:07:50;;;;;;;18.97;10.40;;;;;;;6.43;100.00;95549.13;5093028;28;20246;-53
2022/12/31 04:10:17;;;;;;;15.87;10.20;;;;;;;6.50;100.00;95558.00;5093087;28;20273;-56
2022/12/31 04:12:43;;;;;;;16.00;9.90;;;;;;;6.50;100.00;95575.69;5092612;28;20188;-52
2022/12/31 04:15:13;;;;;;;17.33;10.67;;;;;;;6.37;100.00;95565.41;5092646;28;20260;-55
2022/12/31 04:17:38;;;;;;;18.90;10.20;;;;;;;6.35;100.00;95558.81;5092847;28;20200;-53
2022/12/31 04:20:04;;;;;;;16.63;11.03;;;;;;;6.06;100.00;95527.53;5092558;28;20701;-56
2022/12/31 04:22:30;;;;;;;19.13;11.13;;;;;;;5.55;100.00;95517.63;5092618;28;20192;-53
2022/12/31 04:24:55;;;;;;;20.27;10.93;;;;;;;5.26;100.00;95540.97;5092458;28;20211;-56
2022/12/31 04:27:20;;;;;;;17.23;11.57;;;;;;;5.50;100.00;95550.63;5092565;28;20295;-56
2022/12/31 04:29:46;;;;;;;21.87;12.33;;;;;;;4.97;100.00;95555.81;5092519;28;20219;-52
2022/12/31 04:32:11;;;;;;;19.80;11.63;;;;;;;5.24;100.00;95567.94;5092416;28;20271;-54
2022/12/31 04:34:37;;;;;;;19.70;11.50;;;;;;;5.42;100.00;95567.03;5092209;28;20235;-53
2022/12/31 04:37:02;;;;;;;19.27;11.43;;;;;;;5.72;100.00;95573.88;5092442;28;20725;-53
2022/12/31 04:39:28;;;;;;;22.60;11.20;;;;;;;5.87;100.00;95595.03;5092047;28;20216;-53
2022/12/31 04:41:53;;;;;;;17.77;11.13;;;;;;;5.77;100.00;95582.03;5074002;28;20211;-52
2022/12/31 04:44:19;;;;;;;19.30;11.33;;;;;;;5.66;100.00;95570.84;5092278;28;20217;-56
2022/12/31 04:46:45;;;;;;;21.50;13.27;;;;;;;5.49;100.00;95575.94;5092235;28;20279;-52
2022/12/31 04:49:11;;;;;;;20.30;12.27;;;;;;;5.36;100.00;95579.94;5092133;28;20216;-55
2022/12/31 04:51:37;;;;;;;21.67;12.10;;;;;;;5.58;100.00;95591.41;5091924;28;20184;-55
2022/12/31 04:54:03;;;;;;;26.57;14.07;;;;;;;5.49;100.00;95576.75;5092135;28;20226;-53
2022/12/31 04:56:29;;;;;;;23.40;13.63;;;;;;;5.52;100.00;95594.25;5092242;28;20233;-53
2022/12/31 04:58:55;;;;;;;27.00;15.60;;;;;;;5.47;100.00;95588.63;5092064;28;20649;-55
2022/12/31 05:01:21;;;;;;;24.20;15.33;;;;;;;5.43;100.00;95592.19;5091722;28;20245;-54
2022/12/31 05:03:47;;;;;;;24.43;15.67;;;;;;;5.43;100.00;95597.25;5091947;28;20233;-53
2022/12/31 05:06:16;;;;;;;31.23;16.33;;;;;;;5.73;100.00;95627.69;5091823;28;20609;-55
2022/12/31 05:08:41;;;;;;;31.33;16.73;;;;;;;5.70;100.00;95632.84;5073575;28;20288;-52
2022/12/31 05:11:07;;;;;;;34.57;18.40;;;;;;;5.67;100.00;95630.50;5092138;28;20306;-56
2022/12/31 05:13:33;;;;;;;39.23;21.70;;;;;;;5.59;100.00;95632.59;5072933;28;20200;-52
2022/12/31 05:15:59;;;;;;;45.23;24.97;;;;;;;5.61;100.00;95648.47;5091926;28;20783;-56
2022/12/31 05:18:25;;;;;;;43.60;23.17;;;;;;;5.35;100.00;95637.13;5091574;28;20406;-56
2022/12/31 05:20:50;;;;;;;44.97;24.93;;;;;;;5.27;100.00;95629.13;5091662;28;20759;-55
2022/12/31 05:23:16;;;;;;;49.67;25.47;;;;;;;5.36;100.00;95637.94;5091670;28;20191;-57
2022/12/31 05:25:43;;;;;;;47.33;26.17;;;;;;;5.24;100.00;95628.44;5091478;28;20256;-55
2022/12/31 05:28:09;;;;;;;51.37;26.10;;;;;;;5.22;100.00;95623.47;5091441;28;20188;-53
2022/12/31 05:30:34;;;;;;;52.07;27.37;;;;;;;5.36;100.00;95630.38;5091675;28;20630;-53
2022/12/31 05:33:06;;;;;;;45.27;26.67;;;;;;;5.28;100.00;95629.94;5073429;28;20183;-57
2022/12/31 05:35:31;;;;;;;45.27;25.70;;;;;;;5.34;100.00;95638.00;5091781;28;20601;-56
2022/12/31 05:37:59;;;;;;;42.10;22.57;;;;;;;5.31;100.00;95633.13;5091573;28;20194;-56
2022/12/31 05:40:25;;;;;;;26.37;16.13;;;;;;;5.15;100.00;95628.91;5091368;28;20211;-52
2022/12/31 05:42:51;;;;;;;23.10;14.10;;;;;;;5.03;100.00;95620.19;5091310;28;20184;-55
2022/12/31 05:45:17;;;;;;;22.47;13.13;;;;;;;4.95;100.00;95627.31;5091210;28;20215;-53
2022/12/31 05:47:43;;;;;;;24.33;13.60;;;;;;;4.76;100.00;95629.06;5073171;28;20191;-54
2022/12/31 05:50:11;;;;;;;21.87;13.87;;;;;;;4.50;100.00;95640.34;5091129;28;20283;-53
2022/12/31 05:52:37;;;;;;;22.17;13.43;;;;;;;4.61;100.00;95649.91;5091033;28;20195;-56
2022/12/31 05:55:03;;;;;;;27.10;15.10;;;;;;;4.72;100.00;95645.22;5072798;28;20214;-52
2022/12/31 05:57:28;;;;;;;24.17;14.87;;;;;;;4.73;100.00;95642.63;5091125;28;20271;-52
2022/12/31 05:59:54;;;;;;;25.30;14.40;;;;;;;4.78;100.00;95643.25;5090989;28;20300;-53
2022/12/31 06:02:20;;;;;;;25.20;13.63;;;;;;;4.93;100.00;95646.72;5091225;28;20649;-56
2022/12/31 06:04:45;;;;;;;22.23;13.30;;;;;;;4.97;100.00;95646.50;5091018;28;20218;-55
2022/12/31 06:07:11;;;;;;;22.73;13.30;;;;;;;5.03;100.00;95651.25;5091102;28;20191;-56
2022/12/31 06:09:36;;;;;;;23.77;13.87;;;;;;;5.21;100.00;95663.91;5090703;28;20279;-53
2022/12/31 06:12:02;;;;;;;24.27;14.40;;;;;;;5.13;100.00;95650.84;5091004;28;20612;-54
2022/12/31 06:14:27;;;;;;;23.47;14.57;;;;;;;5.28;100.00;95662.69;5090956;28;20211;-56
2022/12/31 06:16:53;;;;;;;20.87;12.53;;;;;;;5.24;100.00;95653.66;5090982;28;20195;-55
2022/12/31 06:19:18;;;;;;;18.57;11.17;;;;;;;5.27;100.00;95661.09;5090771;28;20241;-56
2022/12/31 06:21:43;;;;;;;20.37;10.77;;;;;;;5.34;100.00;95673.31;5090839;28;20626;-56
2022/12/31 06:24:09;;;;;;;22.37;10.87;;;;;;;5.23;100.00;95662.13;5090757;28;20214;-56
2022/12/31 06:26:35;;;;;;;18.00;9.17;;;;;;;5.29;100.00;95674.44;5092800;28;20234;-58
2022/12/31 06:29:01;;;;;;;13.07;8.80;;;;;;;5.32;100.00;95682.66;5094232;28;20229;-55
2022/12/31 06:31:26;;;;;;;15.67;8.40;;;;;;;5.27;100.00;95682.06;5094385;28;20191;-53
2022/12/31 06:33:58;;;;;;;15.93;8.70;;;;;;;5.30;100.00;95671.00;5094393;28;20299;-56
2022/12/31 06:36:25;;;;;;;12.33;7.20;;;;;;;5.37;100.00;95680.75;5094117;28;20658;-55
2022/12/31 06:38:51;;;;;;;10.23;6.43;;;;;;;5.44;100.00;95688.81;5094234;28;20274;-56
2022/12/31 06:41:17;;;;;;;11.87;6.97;;;;;;;5.56;100.00;95693.25;5094491;28;20229;-56
2022/12/31 06:43:43;;;;;;;10.10;6.90;;;;;;;5.73;100.00;95710.91;5094365;28;20183;-55
2022/12/31 06:46:12;;;;;;;9.77;6.30;;;;;;;5.82;100.00;95712.97;5094139;28;20207;-56
2022/12/31 06:48:38;;;;;;;14.33;8.50;;;;;;;5.67;100.00;95703.66;5093839;28;20188;-56
2022/12/31 06:51:05;;;;;;;12.70;8.90;;;;;;;5.70;100.00;95698.44;5094021;28;20211;-53
2022/12/31 06:53:50;;;;;;;24.30;14.07;;;;;;;5.35;100.00;95696.81;5093876;28;20187;-56
2022/12/31 06:56:18;;;;;;;15.93;9.20;;;;;;;5.67;100.00;95722.13;5093966;28;20677;-55
2022/12/31 06:58:45;;;;;;;17.80;10.20;;;;;;;5.87;100.00;95729.56;5091521;28;20196;-53
2022/12/31 07:01:13;;;;;;;17.77;9.63;;;;;;;6.11;100.00;95750.25;5093162;28;20203;-56
2022/12/31 07:03:51;;;;;;;14.27;8.83;;;;;;;6.32;100.00;95764.31;5093954;28;20963;-56
2022/12/31 07:06:24;;;;;;;12.27;7.97;;;;;;;6.54;100.00;95790.13;5094013;28;20200;-54
2022/12/31 07:09:08;;;;;;;21.20;12.70;;;;;;;6.54;100.00;95774.97;5093912;28;20215;-53
2022/12/31 07:12:15;;;;;;;18.13;10.77;;;;;;;6.51;100.00;95775.13;5093746;28;20188;-56
2022/12/31 07:14:48;;;;;;;15.57;9.33;;;;;;;6.75;100.00;95788.19;5082587;28;20323;-56
2022/12/31 07:17:35;;;;;;;15.50;10.33;;;;;;;6.93;100.00;95811.72;5093585;28;20199;-55
2022/12/31 07:20:15;;;;;;;17.70;10.57;;;;;;;6.97;100.00;95813.19;5093537;28;20287;-55
2022/12/31 07:22:41;;;;;;;19.73;11.53;;;;;;;7.20;100.00;95840.63;5093650;28;20198;-53
2022/12/31 07:25:11;;;;;;;20.00;11.00;;;;;;;7.29;100.00;95851.06;5093690;28;20291;-56
2022/12/31 07:27:52;;;;;;;16.93;10.33;;;;;;;7.42;100.00;95856.28;5094312;28;20230;-52
2022/12/31 07:30:28;;;;;;;16.37;10.17;;;;;;;7.43;100.00;95856.19;5093503;28;20580;-56
2022/12/31 07:33:12;;;;;;;18.53;10.43;;;;;;;7.69;100.00;95875.06;5093418;28;20187;-53
2022/12/31 07:35:55;;;;;;;16.10;10.57;;;;;;;7.10;100.00;95830.16;5092041;28;20203;-54
2022/12/31 07:38:27;;;;;;;12.00;7.30;;;;;;;7.56;100.00;95871.53;5090497;28;20684;-54
2022/12/31 07:41:32;;;;;;;11.07;7.67;;;;;;;7.80;99.88;95875.28;5091497;28;20204;-53
2022/12/31 07:44:12;;;;;;;15.33;8.47;;;;;;;8.15;97.56;95912.16;5075116;28;20196;-56
2022/12/31 07:46:51;;;;;;;8.87;6.13;;;;;;;8.55;100.00;95720.72;5093000;28;20585;-57
2022/12/31 07:49:17;;;;;;;14.43;7.63;;;;;;;8.86;96.77;95950.44;5093006;28;20216;-55
2022/12/31 07:51:43;;;;;;;14.23;7.97;;;;;;;9.02;95.25;95943.56;5093286;28;20277;-56
2022/12/31 07:54:08;;;;;;;9.37;6.67;;;;;;;9.09;92.93;95973.56;5093120;28;20184;-54
2022/12/31 07:56:34;;;;;;;11.53;6.83;;;;;;;9.12;91.71;95975.09;5093056;28;20230;-53
2022/12/31 07:59:37;;;;;;;11.10;7.00;;;;;;;9.13;92.75;95952.19;5092942;28;20184;-56
2022/12/31 08:02:21;;;;;;;11.67;7.30;;;;;;;9.53;90.41;95982.84;5092858;28;20287;-53
2022/12/31 08:05:32;;;;;;;11.10;6.43;;;;;;;10.20;97.72;95949.13;5092804;28;20195;-57
2022/12/31 08:08:01;;;;;;;11.87;6.87;;;;;;;10.30;86.72;96047.56;5088517;28;20200;-56
2022/12/31 08:11:01;;;;;;;9.80;6.73;;;;;;;10.50;85.85;96036.16;5092509;28;20580;-57
2022/12/31 08:13:27;;;;;;;12.93;6.30;;;;;;;10.77;82.92;96065.75;4991154;28;20665;-57
2022/12/31 08:15:53;;;;;;;9.43;6.67;;;;;;;11.15;80.47;96101.50;5071469;28;20303;-57
2022/12/31 08:18:18;;;;;;;10.53;6.13;;;;;;;11.36;79.41;96107.78;5092573;28;20700;-53
2022/12/31 08:21:08;;;;;;;9.20;6.23;;;;;;;11.43;78.75;96098.81;5092243;28;20208;-57
2022/12/31 08:23:33;;;;;;;9.80;6.47;;;;;;;11.41;78.16;96098.09;5092558;28;20275;-56
2022/12/31 08:26:26;;;;;;;7.67;5.93;;;;;;;11.78;77.21;96114.38;5092296;28;20299;-54
2022/12/31 08:29:10;;;;;;;13.93;7.70;;;;;;;12.11;75.39;96142.72;5092398;28;20212;-57
2022/12/31 08:31:50;;;;;;;16.03;6.67;;;;;;;12.35;74.87;96153.84;5092202;28;20201;-57
2022/12/31 08:34:38;;;;;;;12.50;7.37;;;;;;;12.44;74.19;96147.31;5092262;28;20216;-55
2022/12/31 08:37:12;;;;;;;10.73;6.83;;;;;;;12.56;73.84;96146.47;5092376;28;20720;-53
2022/12/31 08:39:49;;;;;;;10.87;7.50;;;;;;;12.89;72.52;96172.19;5092235;28;20216;-54
2022/12/31 08:42:46;;;;;;;13.20;7.07;;;;;;;12.92;71.87;96183.94;5092292;28;20275;-56
2022/12/31 08:45:35;;;;;;;11.33;7.17;;;;;;;12.92;72.01;96156.66;5051185;28;20220;-58
2022/12/31 08:48:10;;;;;;;11.10;7.03;;;;;;;13.31;71.79;96165.84;5091356;28;20199;-56
2022/12/31 08:50:35;;;;;;;16.27;9.37;;;;;;;13.60;71.35;96169.66;5091888;28;20271;-54
2022/12/31 08:53:01;;;;;;;22.40;10.83;;;;;;;13.79;70.51;96169.16;5092106;28;20279;-55
2022/12/31 08:55:27;;;;;;;15.83;10.67;;;;;;;14.07;70.54;96171.31;5092195;28;20216;-55
2022/12/31 08:58:07;;;;;;;20.90;11.53;;;;;;;14.36;68.04;96225.47;5092017;28;20322;-54
2022/12/31 09:00:35;;;;;;;17.73;11.50;;;;;;;14.66;65.96;96259.81;5092146;28;20214;-54
2022/12/31 09:03:25;;;;;;;18.17;12.20;;;;;;;14.81;64.77;96250.16;5091706;28;20199;-54
2022/12/31 09:06:05;;;;;;;20.95;14.13;;;;;;;14.81;64.95;96224.53;5091744;28;20657;-56
2022/12/31 09:08:59;;;;;;;23.00;15.13;;;;;;;14.82;65.20;96205.72;5091743;28;20585;-55
2022/12/31 09:11:24;;;;;;;20.67;14.53;;;;;;;14.94;65.62;96194.53;5091952;28;20233;-53
2022/12/31 09:13:52;;;;;;;28.60;16.17;;;;;;;15.27;64.73;96211.59;5091583;28;20185;-58
2022/12/31 09:16:36;;;;;;;25.60;15.35;;;;;;;15.54;64.31;96215.38;5091486;28;20187;-57
2022/12/31 09:19:02;;;;;;;25.52;17.67;;;;;;;15.75;62.99;96234.19;5091325;28;20188;-57
2022/12/31 09:21:27;;;;;;;30.40;19.23;;;;;;;15.95;61.47;96273.63;5090563;28;20429;-56
2022/12/31 09:23:53;;;;;;;28.85;20.02;;;;;;;15.65;60.69;96266.63;5088589;28;20615;-56
2022/12/31 09:26:35;;;;;;;34.72;19.95;;;;;;;15.71;62.04;96220.00;5088011;28;20906;-56
2022/12/31 09:29:26;;;;;;;31.00;20.52;;;;;;;15.74;62.04;96224.84;5088782;28;20765;-57
2022/12/31 09:32:12;;;;;;;30.77;19.55;;;;;;;15.20;62.96;96192.47;5090122;28;20260;-57
2022/12/31 09:34:59;;;;;;;25.77;19.55;;;;;;;15.63;62.14;96195.88;5091226;28;20200;-55
2022/12/31 09:37:45;;;;;;;31.52;20.27;;;;;;;15.37;61.86;96194.56;5091262;28;20184;-55
2022/12/31 09:40:41;;;;;;;33.28;20.13;;;;;;;15.77;60.57;96224.63;5091096;28;20232;-55
2022/12/31 09:43:46;;;;;;;25.38;18.50;;;;;;;15.94;61.63;96184.78;5090726;28;20229;-57
2022/12/31 09:46:39;;;;;;;29.90;20.00;;;;;;;16.46;61.91;96207.78;5090746;28;20207;-56
2022/12/31 09:49:17;;;;;;;29.45;19.38;;;;;;;16.47;61.56;96195.75;5090447;28;20234;-57
2022/12/31 09:52:00;;;;;;;30.83;18.63;;;;;;;16.40;60.20;96210.84;5090484;28;20206;-56
2022/12/31 09:54:51;;;;;;;32.50;20.83;;;;;;;16.60;59.93;96216.94;5090894;28;20208;-57
2022/12/31 09:57:57;;;;;;;31.90;20.33;;;;;;;16.65;59.22;96213.03;5090755;28;20195;-57
2022/12/31 10:00:37;;;;;;;26.08;20.17;;;;;;;16.91;57.93;96230.59;5079488;28;20340;-58
2022/12/31 10:03:30;;;;;;;29.90;21.15;;;;;;;16.92;57.76;96227.91;5090900;28;20184;-58
2022/12/31 10:06:25;;;;;;;30.08;20.35;;;;;;;16.88;57.68;96223.97;5091095;28;20210;-58
2022/12/31 10:09:28;;;;;;;32.75;22.25;;;;;;;16.96;58.22;96202.75;5090554;28;20756;-57
2022/12/31 10:12:05;;;;;;;30.05;22.52;;;;;;;17.11;56.64;96234.88;5059532;28;20259;-58
2022/12/31 10:14:55;;;;;;;29.52;22.02;;;;;;;17.11;56.75;96214.31;5088366;28;20223;-54
2022/12/31 10:17:40;;;;;;;28.73;21.60;;;;;;;16.97;57.57;96194.13;5088724;28;20192;-58
2022/12/31 10:20:26;;;;;;;30.33;21.15;;;;;;;17.39;55.71;96237.50;5090791;28;20208;-56
2022/12/31 10:23:21;;;;;;;34.05;22.38;;;;;;;17.48;55.14;96246.16;5090089;28;20219;-58
2022/12/31 10:26:04;;;;;;;25.90;18.88;;;;;;;17.44;55.37;96221.66;5078101;28;20220;-55
2022/12/31 10:28:54;;;;;;;28.92;19.27;;;;;;;17.18;55.52;96205.09;5089417;28;20674;-55
2022/12/31 10:32:05;;;;;;;30.42;19.10;;;;;;;17.32;56.93;96179.03;5090343;28;20215;-56
2022/12/31 10:34:42;;;;;;;26.35;18.50;;;;;;;17.34;57.10;96159.13;5090502;28;20425;-57
2022/12/31 10:37:18;;;;;;;28.10;17.73;;;;;;;17.67;64.25;95981.28;5090477;28;20180;-58
2022/12/31 10:40:02;;;;;;;24.80;17.00;;;;;;;18.10;62.15;96038.13;5090362;28;20204;-58
2022/12/31 10:42:27;;;;;;;25.08;16.42;;;;;;;18.36;59.46;96107.84;5090397;28;20191;-59
2022/12/31 10:45:14;;;;;;;20.10;16.08;;;;;;;18.65;59.54;96087.09;5090388;28;20629;-59
2022/12/31 10:48:09;;;;;;;23.13;15.52;;;;;;;18.65;54.21;96218.50;5090215;28;20670;-59
2022/12/31 10:50:47;;;;;;;24.55;15.93;;;;;;;18.62;56.58;96152.63;5090022;28;20218;-55
2022/12/31 10:53:17;;;;;;;18.58;13.25;;;;;;;19.27;62.62;96017.47;5089984;28;20195;-55
2022/12/31 10:56:01;;;;;;;21.13;14.57;;;;;;;19.23;53.37;96231.00;5090126;28;20212;-55
2022/12/31 10:58:56;;;;;;;20.92;13.70;;;;;;;19.15;52.09;96258.47;5090163;28;20184;-57
2022/12/31 11:01:43;;;;;;;18.92;13.73;;;;;;;18.69;52.50;96230.16;5090433;28;20284;-57
2022/12/31 11:04:28;;;;;;;20.65;15.35;;;;;;;18.93;54.73;96190.06;5090350;28;20275;-58
2022/12/31 11:07:23;;;;;;;19.15;13.32;;;;;;;19.15;57.82;96107.16;5090077;28;20206;-58
2022/12/31 11:10:16;;;;;;;19.08;12.43;;;;;;;19.38;57.46;96104.16;5089763;28;20223;-55
2022/12/31 11:13:01;;;;;;;20.67;13.25;;;;;;;19.54;53.86;96164.47;5092053;28;20203;-57
2022/12/31 11:15:59;;;;;;;19.20;12.50;;;;;;;19.78;55.89;96119.97;5093650;28;20203;-55
2022/12/31 11:18:43;;;;;;;17.67;12.30;;;;;;;19.90;53.76;96165.25;5092482;28;20247;-55
2022/12/31 11:21:27;;;;;;;21.27;13.05;;;;;;;20.06;52.44;96189.41;5093367;28;20688;-54
2022/12/31 11:23:58;;;;;;;19.63;13.63;;;;;;;20.06;49.65;96248.81;5093710;28;20253;-56
2022/12/31 11:26:54;;;;;;;17.83;13.55;;;;;;;19.84;49.49;96227.78;5093382;28;20200;-53
2022/12/31 11:29:38;;;;;;;19.20;12.70;;;;;;;19.98;49.98;96212.59;5074917;28;20603;-54
2022/12/31 11:32:16;;;;;;;20.05;13.77;;;;;;;19.99;47.70;96271.03;5093516;28;20192;-58
2022/12/31 11:34:59;;;;;;;20.42;14.10;;;;;;;19.73;49.78;96192.72;5093227;28;20212;-54
2022/12/31 11:37:39;;;;;;;16.98;12.88;;;;;;;19.99;51.50;96149.69;5092522;28;20192;-56
2022/12/31 11:40:31;;;;;;;20.98;13.55;;;;;;;20.15;47.34;96265.19;5092053;28;20300;-57
2022/12/31 11:43:19;;;;;;;16.10;12.20;;;;;;;19.74;48.93;96193.50;5092745;28;20220;-57
2022/12/31 11:46:03;;;;;;;16.55;11.82;;;;;;;19.85;49.93;96170.88;5093178;28;20210;-53
2022/12/31 11:48:53;;;;;;;20.25;13.00;;;;;;;20.03;49.38;96182.00;5093095;28;20188;-58
2022/12/31 11:51:18;;;;;;;20.80;13.90;;;;;;;20.01;49.40;96165.84;5092888;28;20242;-57
2022/12/31 11:53:49;;;;;;;19.50;13.85;;;;;;;20.15;48.32;96189.47;5092887;28;20191;-57
2022/12/31 11:56:16;;;;;;;20.67;14.77;;;;;;;20.16;48.00;96201.44;5093138;28;20196;-55
2022/12/31 11:58:52;;;;;;;22.85;15.65;;;;;;;19.60;47.82;96194.84;5092715;28;20207;-55
2022/12/31 12:01:25;;;;;;;21.77;13.75;;;;;;;19.44;48.08;96179.19;5092590;28;20653;-58